Time;durP1;ratioP1;P1;durP2;ratioP2;P2;SDS_P1;SDS_P2;PMS_P1;PMS_P2;Temp;Humidity;BMP_temperature;BMP_pressure;BME280_temperature;BME280_humidity;BME280_pressure;Samples;Min_cycle;Max_cycle;Signal;HPM_P1;HPM_P2
2023/04/13 00:02:21;;;;;;;;;;;;;;;6.18;100.00;95748.00;5038237;28;20679;-71
2023/04/13 00:04:49;;;;;;;;;;;;;;;6.19;100.00;95752.28;5043437;28;20427;-70
2023/04/13 00:07:15;;;;;;;;;;;;;;;6.15;100.00;95747.94;5038465;28;20389;-71
2023/04/13 00:09:41;;;;;;;;;;;;;;;6.10;100.00;95738.13;5045303;28;19932;-68
2023/04/13 00:12:06;;;;;;;;;;;;;;;6.16;100.00;95733.97;5038701;28;19925;-70
2023/04/13 00:14:34;;;;;;;;;;;;;;;6.17;100.00;95732.81;5043264;28;19917;-72
2023/04/13 00:16:59;;;;;;;;;;;;;;;6.02;100.00;95737.22;5041467;28;20007;-71
2023/04/13 00:19:25;;;;;;;;;;;;;;;6.01;100.00;95740.28;5037971;28;20015;-69
2023/04/13 00:21:54;;;;;;;;;;;;;;;6.06;100.00;95726.41;5048167;28;20355;-71
2023/04/13 00:24:19;;;;;;;;;;;;;;;6.21;100.00;95725.53;5041609;28;19921;-68
2023/04/13 00:26:45;;;;;;;;;;;;;;;6.21;100.00;95728.25;5045633;28;19921;-71
2023/04/13 00:29:10;;;;;;;;;;;;;;;6.18;100.00;95733.63;5039298;28;20292;-71
2023/04/13 00:31:36;;;;;;;;;;;;;;;6.21;100.00;95730.16;5042936;28;20530;-71
2023/04/13 00:34:02;;;;;;;;;;;;;;;6.10;100.00;95728.06;5041490;28;19924;-65
2023/04/13 00:36:28;;;;;;;;;;;;;;;6.05;100.00;95722.91;5039895;28;19999;-69
2023/04/13 00:38:56;;;;;;;;;;;;;;;6.08;100.00;95732.25;5042757;28;19917;-72
2023/04/13 00:41:21;;;;;;;;;;;;;;;6.15;100.00;95723.47;5037455;28;20881;-72
2023/04/13 00:43:46;;;;;;;;;;;;;;;6.22;100.00;95720.88;5043010;28;20378;-71
2023/04/13 00:46:12;;;;;;;;;;;;;;;6.31;100.00;95713.25;5037264;28;19920;-70
2023/04/13 00:48:38;;;;;;;;;;;;;;;6.30;100.00;95700.78;5022940;28;19927;-70
2023/04/13 00:51:04;;;;;;;;;;;;;;;6.23;100.00;95701.47;5040078;28;19920;-67
2023/04/13 00:53:30;;;;;;;;;;;;;;;6.30;100.00;95706.22;5041063;28;19924;-70
2023/04/13 00:55:56;;;;;;;;;;;;;;;6.30;100.00;95706.22;5041056;28;19920;-71
2023/04/13 00:58:21;;;;;;;;;;;;;;;6.16;100.00;95705.97;5036900;28;20339;-71
2023/04/13 01:00:47;;;;;;;;;;;;;;;6.02;100.00;95695.66;5042798;28;19924;-69
2023/04/13 01:03:12;;;;;;;;;;;;;;;5.99;100.00;95683.56;5039300;28;20594;-71
2023/04/13 01:05:49;;;;;;;;;;;;;;;5.85;100.00;95686.00;5043208;28;19944;-70
2023/04/13 01:08:14;;;;;;;;;;;;;;;5.94;100.00;95691.97;5035833;28;20016;-69
2023/04/13 01:10:53;;;;;;;;;;;;;;;5.86;100.00;95696.50;5041130;28;20007;-70
2023/04/13 01:13:18;;;;;;;;;;;;;;;5.91;100.00;95700.88;5034421;28;20289;-70
2023/04/13 01:15:51;;;;;;;;;;;;;;;5.94;100.00;95692.78;5041972;28;19927;-67
2023/04/13 01:18:17;;;;;;;;;;;;;;;5.87;100.00;95705.44;5035030;28;20366;-71
2023/04/13 01:20:44;;;;;;;;;;;;;;;5.79;100.00;95704.53;5040425;28;19917;-70
2023/04/13 01:23:17;;;;;;;;;;;;;;;5.85;100.00;95713.97;5035356;28;20019;-69
2023/04/13 01:25:50;;;;;;;;;;;;;;;5.85;100.00;95707.75;5042088;28;20348;-70
2023/04/13 01:28:16;;;;;;;;;;;;;;;5.85;100.00;95708.53;5038048;28;19968;-69
2023/04/13 01:30:43;;;;;;;;;;;;;;;5.82;100.00;95711.19;5042676;28;19917;-70
2023/04/13 01:33:09;;;;;;;;;;;;;;;5.79;100.00;95703.75;5036942;28;19925;-70
2023/04/13 01:35:35;;;;;;;;;;;;;;;5.82;100.00;95703.81;5043165;28;20034;-69
2023/04/13 01:38:01;;;;;;;;;;;;;;;5.81;100.00;95710.38;5048440;28;20572;-70
2023/04/13 01:40:27;;;;;;;;;;;;;;;5.85;100.00;95713.97;5040017;28;19981;-69
2023/04/13 01:42:52;;;;;;;;;;;;;;;5.62;100.00;95716.66;5043242;28;20430;-71
2023/04/13 01:45:23;;;;;;;;;;;;;;;5.47;100.00;95710.13;5035736;28;19921;-70
2023/04/13 01:47:51;;;;;;;;;;;;;;;5.46;100.00;95710.50;5039929;28;20015;-71
2023/04/13 01:50:24;;;;;;;;;;;;;;;5.49;100.00;95715.19;5044074;28;19920;-68
2023/04/13 01:52:57;;;;;;;;;;;;;;;5.41;100.00;95716.22;5059904;28;19916;-70
2023/04/13 01:55:22;;;;;;;;;;;;;;;5.52;100.00;95720.69;5054449;28;20852;-70
2023/04/13 01:57:50;;;;;;;;;;;;;;;5.50;100.00;95723.00;5046666;28;19917;-71
2023/04/13 02:00:17;;;;;;;;;;;;;;;5.35;100.00;95715.72;5015671;28;19950;-69
2023/04/13 02:02:43;;;;;;;;;;;;;;;5.47;100.00;95704.69;5042299;28;19917;-71
2023/04/13 02:05:09;;;;;;;;;;;;;;;5.44;100.00;95712.75;5035203;28;19916;-69
2023/04/13 02:07:36;;;;;;;;;;;;;;;5.47;100.00;95709.34;5040163;28;19944;-70
2023/04/13 02:10:04;;;;;;;;;;;;;;;5.43;100.00;95712.00;5041058;28;19928;-71
2023/04/13 02:12:30;;;;;;;;;;;;;;;5.47;100.00;95712.84;5041350;28;19921;-70
2023/04/13 02:14:55;;;;;;;;;;;;;;;5.52;100.00;95717.97;5041381;28;19986;-70
2023/04/13 02:17:20;;;;;;;;;;;;;;;5.49;100.00;95718.72;5051596;28;21435;-70
2023/04/13 02:19:46;;;;;;;;;;;;;;;5.49;100.00;95715.19;5052639;28;20405;-70
2023/04/13 02:22:11;;;;;;;;;;;;;;;5.46;100.00;95722.16;5040517;28;19928;-71
2023/04/13 02:24:37;;;;;;;;;;;;;;;5.53;100.00;95718.78;5041899;28;19920;-70
2023/04/13 02:27:03;;;;;;;;;;;;;;;5.53;100.00;95727.72;5039065;28;19947;-64
2023/04/13 02:29:28;;;;;;;;;;;;;;;5.59;100.00;95722.00;5029127;28;19917;-69
2023/04/13 02:31:53;;;;;;;;;;;;;;;5.53;100.00;95714.13;5033893;28;19917;-71
2023/04/13 02:34:19;;;;;;;;;;;;;;;5.68;100.00;95717.91;5044927;28;19921;-72
2023/04/13 02:36:45;;;;;;;;;;;;;;;5.55;100.00;95713.78;5045488;28;19917;-70
2023/04/13 02:39:11;;;;;;;;;;;;;;;5.61;100.00;95712.34;5035193;28;19974;-69
2023/04/13 02:41:36;;;;;;;;;;;;;;;5.50;100.00;95714.06;5039165;28;19920;-71
2023/04/13 02:44:01;;;;;;;;;;;;;;;5.51;100.00;95721.06;5040842;28;19916;-71
2023/04/13 02:46:27;;;;;;;;;;;;;;;5.46;100.00;95713.22;5034963;28;19974;-71
2023/04/13 02:48:52;;;;;;;;;;;;;;;5.47;100.00;95712.06;5041333;28;19921;-71
2023/04/13 02:51:17;;;;;;;;;;;;;;;5.46;100.00;95707.78;5028870;28;20003;-71
2023/04/13 02:53:43;;;;;;;;;;;;;;;5.46;100.00;95707.78;5022870;28;19921;-68
2023/04/13 02:56:08;;;;;;;;;;;;;;;5.54;100.00;95704.84;5035395;28;20026;-71
2023/04/13 02:58:34;;;;;;;;;;;;;;;5.48;100.00;95705.50;5040649;28;19921;-68
2023/04/13 03:00:59;;;;;;;;;;;;;;;5.58;100.00;95698.69;5040585;28;20293;-68
2023/04/13 03:03:24;;;;;;;;;;;;;;;5.48;100.00;95695.41;5034855;28;20388;-70
2023/04/13 03:05:50;;;;;;;;;;;;;;;5.43;100.00;95698.41;5041155;28;19928;-70
2023/04/13 03:08:16;;;;;;;;;;;;;;;5.44;100.00;95699.19;5032808;28;19921;-71
2023/04/13 03:10:43;;;;;;;;;;;;;;;5.43;100.00;95703.06;5039593;28;20012;-68
2023/04/13 03:13:09;;;;;;;;;;;;;;;5.47;100.00;95703.91;5035522;28;19939;-72
2023/04/13 03:15:35;;;;;;;;;;;;;;;5.48;100.00;95713.66;5040394;28;20334;-72
2023/04/13 03:18:02;;;;;;;;;;;;;;;5.51;100.00;95702.84;5040859;28;20484;-71
2023/04/13 03:20:28;;;;;;;;;;;;;;;5.50;97.94;95714.06;5035245;28;19923;-71
2023/04/13 03:22:55;;;;;;;;;;;;;;;5.46;100.00;95724.09;5040682;28;20296;-72
2023/04/13 03:25:21;;;;;;;;;;;;;;;5.43;100.00;95722.84;5035377;28;20254;-71
2023/04/13 03:27:46;;;;;;;;;;;;;;;5.44;99.76;95726.34;5026063;28;19927;-71
2023/04/13 03:30:11;;;;;;;;;;;;;;;5.51;99.45;95727.28;5037423;28;20361;-72
2023/04/13 03:32:37;;;;;;;;;;;;;;;5.41;98.03;95733.28;5044165;28;19921;-71
2023/04/13 03:35:02;;;;;;;;;;;;;;;5.49;99.04;95740.44;5041777;28;19923;-65
2023/04/13 03:37:31;;;;;;;;;;;;;;;5.50;96.20;95731.13;5042856;28;19959;-71
2023/04/13 03:39:57;;;;;;;;;;;;;;;5.49;95.39;95737.72;5044401;28;19990;-69
2023/04/13 03:42:22;;;;;;;;;;;;;;;5.39;96.12;95743.72;5037663;28;20631;-71
2023/04/13 03:44:47;;;;;;;;;;;;;;;5.35;95.16;95742.88;5043444;28;19963;-71
2023/04/13 03:47:13;;;;;;;;;;;;;;;5.35;97.30;95746.38;5038442;28;20373;-69
2023/04/13 03:49:38;;;;;;;;;;;;;;;5.31;96.07;95742.78;5043356;28;19925;-71
2023/04/13 03:52:03;;;;;;;;;;;;;;;5.31;96.24;95740.06;5053191;28;20336;-65
2023/04/13 03:54:29;;;;;;;;;;;;;;;5.38;96.54;95733.22;5051996;28;19928;-71
2023/04/13 03:56:56;;;;;;;;;;;;;;;5.34;95.17;95741.28;5043557;28;19916;-71
2023/04/13 03:59:22;;;;;;;;;;;;;;;5.50;94.83;95733.84;5036558;28;20775;-71
2023/04/13 04:01:47;;;;;;;;;;;;;;;5.48;94.73;95733.44;5044512;28;19921;-71
2023/04/13 04:04:12;;;;;;;;;;;;;;;5.43;94.96;95744.56;5046362;28;19921;-69
2023/04/13 04:06:37;;;;;;;;;;;;;;;5.32;95.41;95740.84;5045769;28;19978;-69
2023/04/13 04:09:03;;;;;;;;;;;;;;;5.32;97.11;95736.22;5024704;28;20507;-64
2023/04/13 04:11:28;;;;;;;;;;;;;;;5.25;97.28;95730.63;5041733;28;19921;-72
2023/04/13 04:13:54;;;;;;;;;;;;;;;5.19;98.63;95739.41;5044106;28;19923;-70
2023/04/13 04:16:20;;;;;;;;;;;;;;;5.11;98.80;95730.31;5038423;28;19921;-70
2023/04/13 04:18:49;;;;;;;;;;;;;;;5.16;99.28;95727.31;5044316;28;19917;-70
2023/04/13 04:21:15;;;;;;;;;;;;;;;5.21;100.00;95731.72;5037895;28;20310;-71
2023/04/13 04:23:40;;;;;;;;;;;;;;;5.12;100.00;95738.09;5042985;28;20027;-71
2023/04/13 04:26:06;;;;;;;;;;;;;;;5.14;100.00;95735.81;5037646;28;20007;-70
2023/04/13 04:28:37;;;;;;;;;;;;;;;5.24;100.00;95730.97;5043426;28;20361;-70
2023/04/13 04:31:03;;;;;;;;;;;;;;;5.33;100.00;95736.97;5040156;28;19917;-65
2023/04/13 04:33:29;;;;;;;;;;;;;;;5.35;100.00;95738.22;5042810;28;20011;-69
2023/04/13 04:35:55;;;;;;;;;;;;;;;5.38;100.00;95734.00;5043150;28;20012;-68
2023/04/13 04:38:23;;;;;;;;;;;;;;;5.41;98.95;95727.84;5037753;28;20413;-70
2023/04/13 04:40:49;;;;;;;;;;;;;;;5.31;100.00;95736.56;5024907;28;19924;-69
2023/04/13 04:43:14;;;;;;;;;;;;;;;5.28;100.00;95745.44;5038064;28;19921;-70
2023/04/13 04:45:42;;;;;;;;;;;;;;;5.35;100.00;95738.22;5042348;28;19921;-68
2023/04/13 04:48:07;;;;;;;;;;;;;;;5.41;99.70;95749.56;5037803;28;20302;-68
2023/04/13 04:50:32;;;;;;;;;;;;;;;5.34;99.15;95754.84;5043423;28;19928;-69
2023/04/13 04:52:58;;;;;;;;;;;;;;;5.37;100.00;95756.88;5063374;28;19916;-71
2023/04/13 04:55:23;;;;;;;;;;;;;;;5.40;99.59;95752.66;5038045;28;19964;-71
2023/04/13 04:57:48;;;;;;;;;;;;;;;5.32;99.96;95762.56;5043271;28;19924;-72
2023/04/13 05:00:14;;;;;;;;;;;;;;;5.38;100.00;95760.38;5035385;28;20358;-69
2023/04/13 05:02:40;;;;;;;;;;;;;;;5.50;100.00;95766.44;5043364;28;19928;-70
2023/04/13 05:05:05;;;;;;;;;;;;;;;5.48;96.41;95767.97;5047786;28;20317;-66
2023/04/13 05:07:31;;;;;;;;;;;;;;;5.57;95.75;95773.19;5055400;28;20003;-67
2023/04/13 05:09:56;;;;;;;;;;;;;;;5.51;96.47;95784.34;5042923;28;19920;-67
2023/04/13 05:12:21;;;;;;;;;;;;;;;5.42;96.41;95778.31;5034607;28;19925;-70
2023/04/13 05:14:47;;;;;;;;;;;;;;;5.39;96.03;95789.09;5039783;28;19920;-70
2023/04/13 05:17:17;;;;;;;;;;;;;;;5.51;90.79;95781.63;5020666;28;19917;-68
2023/04/13 05:19:46;;;;;;;;;;;;;;;5.41;92.20;95782.16;5060012;28;19921;-67
2023/04/13 05:22:11;;;;;;;;;;;;;;;5.49;89.50;95786.63;5049425;28;20377;-70
2023/04/13 05:24:37;;;;;;;;;;;;;;;5.54;88.45;95785.53;5043979;28;20035;-68
2023/04/13 05:27:02;;;;;;;;;;;;;;;5.59;88.88;95779.06;5040215;28;19921;-63
2023/04/13 05:29:28;;;;;;;;;;;;;;;5.54;87.87;95791.75;5039244;28;19917;-70
2023/04/13 05:31:53;;;;;;;;;;;;;;;5.56;88.45;95788.69;5041813;28;20050;-67
2023/04/13 05:34:18;;;;;;;;;;;;;;;5.61;88.01;95802.00;5039950;28;19921;-70
2023/04/13 05:36:43;;;;;;;;;;;;;;;5.62;87.65;95802.75;5045053;28;19917;-69
2023/04/13 05:39:09;;;;;;;;;;;;;;;5.64;87.34;95797.78;5037395;28;19928;-70
2023/04/13 05:41:35;;;;;;;;;;;;;;;5.71;87.61;95803.38;5043448;28;19916;-70
2023/04/13 05:44:00;;;;;;;;;;;;;;;5.68;89.94;95807.56;5047880;28;19925;-68
2023/04/13 05:46:26;;;;;;;;;;;;;;;5.72;89.78;95804.94;5055800;28;19996;-66
2023/04/13 05:48:51;;;;;;;;;;;;;;;5.65;90.08;95808.28;5045243;28;19963;-68
2023/04/13 05:51:17;;;;;;;;;;;;;;;5.57;90.12;95806.56;5036562;28;20404;-70
2023/04/13 05:53:42;;;;;;;;;;;;;;;5.64;90.30;95812.16;5036903;28;19917;-70
2023/04/13 05:56:08;;;;;;;;;;;;;;;5.59;91.40;95806.22;5030012;28;20011;-71
2023/04/13 05:58:33;;;;;;;;;;;;;;;5.60;92.90;95813.19;5045830;28;19917;-71
2023/04/13 06:00:59;;;;;;;;;;;;;;;5.63;94.29;95816.00;5046520;28;20004;-69
2023/04/13 06:03:25;;;;;;;;;;;;;;;5.66;93.36;95817.22;5037615;28;19920;-70
2023/04/13 06:05:51;;;;;;;;;;;;;;;5.89;91.49;95817.31;5040389;28;19928;-70
2023/04/13 06:08:17;;;;;;;;;;;;;;;5.88;93.22;95818.44;5036742;28;19921;-72
2023/04/13 06:10:43;;;;;;;;;;;;;;;5.89;92.31;95822.75;5041966;28;20292;-71
2023/04/13 06:13:09;;;;;;;;;;;;;;;6.21;87.77;95823.41;5036112;28;19917;-69
2023/04/13 06:15:35;;;;;;;;;;;;;;;6.19;89.45;95824.91;5040871;28;19964;-71
2023/04/13 06:18:00;;;;;;;;;;;;;;;6.22;89.28;95824.19;5041269;28;19925;-71
2023/04/13 06:20:26;;;;;;;;;;;;;;;6.28;87.71;95820.03;5036655;28;19923;-69
2023/04/13 06:22:51;;;;;;;;;;;;;;;6.30;91.06;95818.53;5040996;28;19921;-71
2023/04/13 06:25:16;;;;;;;;;;;;;;;6.61;87.25;95822.19;5032067;28;19917;-72
2023/04/13 06:27:42;;;;;;;;;;;;;;;6.66;88.44;95832.78;5040975;28;20373;-72
2023/04/13 06:30:09;;;;;;;;;;;;;;;6.70;85.51;95828.19;5036174;28;19931;-71
2023/04/13 06:32:34;;;;;;;;;;;;;;;6.67;85.68;95831.63;5040253;28;19917;-70
2023/04/13 06:35:00;;;;;;;;;;;;;;;6.79;84.75;95827.94;5040735;28;20037;-71
2023/04/13 06:37:26;;;;;;;;;;;;;;;6.82;83.54;95831.84;5017554;28;19921;-71
2023/04/13 06:39:52;;;;;;;;;;;;;;;6.82;86.22;95834.59;5040975;28;19982;-71
2023/04/13 06:42:17;;;;;;;;;;;;;;;6.73;87.34;95842.22;5036182;28;20000;-71
2023/04/13 06:44:43;;;;;;;;;;;;;;;6.61;86.95;95841.25;5040686;28;20011;-71
2023/04/13 06:47:08;;;;;;;;;;;;;;;6.80;84.59;95836.88;5017305;28;19971;-70
2023/04/13 06:49:33;;;;;;;;;;;;;;;6.71;82.85;95828.97;5039766;28;19921;-70
2023/04/13 06:51:58;;;;;;;;;;;;;;;6.53;83.01;95828.66;5040025;28;20031;-71
2023/04/13 06:54:24;;;;;;;;;;;;;;;6.50;81.02;95834.81;5034643;28;19956;-69
2023/04/13 06:56:50;;;;;;;;;;;;;;;6.34;82.62;95825.94;5040238;28;19923;-72
2023/04/13 06:59:15;;;;;;;;;;;;;;;6.44;82.31;95830.81;5035560;28;20003;-71
2023/04/13 07:01:41;;;;;;;;;;;;;;;6.36;80.84;95824.47;5042755;28;20760;-70
2023/04/13 07:04:06;;;;;;;;;;;;;;;6.48;79.26;95820.78;5038157;28;19927;-71
2023/04/13 07:06:32;;;;;;;;;;;;;;;6.42;81.07;95823.00;5043771;28;19921;-71
2023/04/13 07:08:57;;;;;;;;;;;;;;;6.51;79.45;95820.84;5044323;28;20382;-69
2023/04/13 07:11:23;;;;;;;;;;;;;;;6.43;79.68;95821.88;5038582;28;19971;-68
2023/04/13 07:13:49;;;;;;;;;;;;;;;6.44;77.70;95818.00;5044063;28;19995;-70
2023/04/13 07:16:14;;;;;;;;;;;;;;;6.50;79.36;95829.38;5038930;28;20400;-72
2023/04/13 07:18:40;;;;;;;;;;;;;;;6.33;78.21;95822.47;5043075;28;19936;-71
2023/04/13 07:21:06;;;;;;;;;;;;;;;6.46;79.27;95826.59;5039010;28;19999;-68
2023/04/13 07:23:31;;;;;;;;;;;;;;;6.59;77.70;95826.41;5044166;28;19917;-69
2023/04/13 07:25:57;;;;;;;;;;;;;;;6.92;76.81;95825.81;5044107;28;19916;-72
2023/04/13 07:28:23;;;;;;;;;;;;;;;6.90;76.14;95817.22;5039251;28;20747;-71
2023/04/13 07:30:48;;;;;;;;;;;;;;;6.68;75.70;95816.06;5050043;28;19988;-71
2023/04/13 07:33:13;;;;;;;;;;;;;;;6.94;74.61;95820.78;5047344;28;19917;-70
2023/04/13 07:35:39;;;;;;;;;;;;;;;6.73;75.23;95826.66;5051300;28;19921;-69
2023/04/13 07:38:05;;;;;;;;;;;;;;;6.79;76.22;95827.94;5028321;28;19924;-66
2023/04/13 07:40:30;;;;;;;;;;;;;;;7.13;74.09;95821.84;5054788;28;19956;-71
2023/04/13 07:42:56;;;;;;;;;;;;;;;7.32;72.69;95819.03;5054903;28;19924;-72
2023/04/13 07:45:21;;;;;;;;;;;;;;;7.66;71.41;95824.56;5048523;28;20780;-71
2023/04/13 07:47:47;;;;;;;;;;;;;;;7.53;70.64;95825.97;5051147;28;19921;-71
2023/04/13 07:50:12;;;;;;;;;;;;;;;7.99;68.68;95826.53;5042628;28;19921;-72
2023/04/13 07:52:38;;;;;;;;;;;;;;;8.03;67.64;95838.31;5044946;28;19939;-72
2023/04/13 07:55:03;;;;;;;;;;;;;;;8.24;67.02;95826.84;5040464;28;19921;-67
2023/04/13 07:57:29;;;;;;;;;;;;;;;8.57;65.23;95827.22;5042103;28;19917;-70
2023/04/13 07:59:54;;;;;;;;;;;;;;;8.61;64.61;95830.78;5043552;28;19974;-71
2023/04/13 08:02:21;;;;;;;;;;;;;;;8.78;62.85;95832.09;5037764;28;20007;-70
2023/04/13 08:04:46;;;;;;;;;;;;;;;8.97;63.84;95826.44;5038030;28;20557;-71
2023/04/13 08:07:12;;;;;;;;;;;;;;;8.45;62.82;95825.56;5036717;28;19925;-69
2023/04/13 08:09:38;;;;;;;;;;;;;;;9.16;62.75;95827.34;5044056;28;19917;-71
2023/04/13 08:12:04;;;;;;;;;;;;;;;9.19;60.85;95827.38;5039269;28;20285;-66
2023/04/13 08:14:29;;;;;;;;;;;;;;;9.07;59.33;95815.97;5042783;28;19917;-71
2023/04/13 08:16:55;;;;;;;;;;;;;;;8.94;60.16;95827.19;5043500;28;19916;-68
2023/04/13 08:19:20;;;;;;;;;;;;;;;8.74;60.76;95826.63;5038457;28;20407;-71
2023/04/13 08:21:46;;;;;;;;;;;;;;;9.41;58.81;95826.75;5041929;28;19943;-70
2023/04/13 08:24:11;;;;;;;;;;;;;;;9.77;58.17;95828.53;5036894;28;20015;-70
2023/04/13 08:26:36;;;;;;;;;;;;;;;9.85;58.08;95828.56;5043164;28;19924;-72
2023/04/13 08:29:02;;;;;;;;;;;;;;;10.16;56.21;95832.63;5042810;28;19932;-65
2023/04/13 08:31:27;;;;;;;;;;;;;;;9.63;56.22;95825.72;5037768;28;19920;-71
2023/04/13 08:33:52;;;;;;;;;;;;;;;9.47;57.81;95828.75;5043296;28;19916;-70
2023/04/13 08:36:18;;;;;;;;;;;;;;;9.73;56.53;95819.53;5037939;28;19921;-69
2023/04/13 08:38:43;;;;;;;;;;;;;;;10.49;53.36;95817.91;5042011;28;19917;-72
2023/04/13 08:41:09;;;;;;;;;;;;;;;10.64;53.75;95821.47;5039103;28;20004;-69
2023/04/13 08:43:34;;;;;;;;;;;;;;;10.16;52.84;95816.22;5038571;28;20028;-70
2023/04/13 08:46:01;;;;;;;;;;;;;;;10.66;50.60;95821.06;5031293;28;19921;-72
2023/04/13 08:48:26;;;;;;;;;;;;;;;11.24;51.02;95819.94;5041327;28;20286;-72
2023/04/13 08:50:55;;;;;;;;;;;;;;;11.19;51.04;95809.38;5061950;28;19946;-69
2023/04/13 08:53:20;;;;;;;;;;;;;;;11.57;50.16;95812.47;5064746;28;19927;-70
2023/04/13 08:55:46;;;;;;;;;;;;;;;11.46;49.82;95817.97;5063642;28;19916;-71
2023/04/13 08:58:12;;;;;;;;;;;;;;;10.90;51.11;95811.31;5056963;28;19924;-71
2023/04/13 09:00:39;;;;;;;;;;;;;;;10.80;51.23;95812.09;5063433;28;20011;-72
2023/04/13 09:03:05;;;;;;;;;;;;;;;10.79;50.86;95825.00;5054018;28;19931;-67
2023/04/13 09:05:32;;;;;;;;;;;;;;;11.88;49.74;95825.72;5042113;28;20400;-72
2023/04/13 09:08:00;;;;;;;;;;;;;;;11.97;49.37;95820.63;5042339;28;19929;-72
2023/04/13 09:10:26;;;;;;;;;;;;;;;12.19;49.07;95822.13;5037333;28;19986;-70
2023/04/13 09:12:51;;;;;;;;;;;;;;;13.37;46.87;95819.81;5042889;28;19972;-69
2023/04/13 09:15:17;;;;;;;;;;;;;;;12.98;45.71;95831.88;5040840;28;19999;-71
2023/04/13 09:17:42;;;;;;;;;;;;;;;12.74;45.28;95814.38;5063226;28;19984;-70
2023/04/13 09:20:17;;;;;;;;;;;;;;;13.55;44.08;95808.66;5045986;28;21358;-72
2023/04/13 09:22:42;;;;;;;;;;;;;;;13.25;44.75;95809.28;5041979;28;19917;-72
2023/04/13 09:25:21;;;;;;;;;;;;;;;14.27;43.24;95797.63;5036910;28;20234;-68
2023/04/13 09:27:46;;;;;;;;;;;;;;;13.23;43.93;95801.44;5043421;28;19966;-73
2023/04/13 09:30:12;;;;;;;;;;;;;;;12.67;44.08;95798.72;5037895;28;19921;-70
2023/04/13 09:32:37;;;;;;;;;;;;;;;12.84;45.28;95794.31;5042703;28;19920;-74
2023/04/13 09:35:04;;;;;;;;;;;;;;;12.19;45.65;95797.41;5042066;28;20451;-66
2023/04/13 09:37:36;;;;;;;;;;;;;;;12.58;45.43;95795.63;5043027;28;20054;-71
2023/04/13 09:40:09;;;;;;;;;;;;;;;12.12;45.53;95797.44;5041982;28;19964;-66
2023/04/13 09:42:35;;;;;;;;;;;;;;;12.18;45.49;95798.59;5043031;28;20357;-70
2023/04/13 09:45:00;;;;;;;;;;;;;;;12.78;42.79;95802.19;5053537;28;19928;-68
2023/04/13 09:47:33;;;;;;;;;;;;;;;13.38;42.99;95802.16;5017089;28;19928;-71
2023/04/13 09:49:58;;;;;;;;;;;;;;;12.80;43.40;95802.56;5022498;28;19921;-71
2023/04/13 09:52:24;;;;;;;;;;;;;;;12.43;43.63;95798.47;5051527;28;19928;-71
2023/04/13 09:54:53;;;;;;;;;;;;;;;11.96;44.13;95795.16;5068417;28;19916;-70
2023/04/13 09:57:36;;;;;;;;;;;;;;;11.72;44.51;95783.06;5063740;28;19923;-70
2023/04/13 10:00:01;;;;;;;;;;;;;;;11.08;47.55;95767.50;5063203;28;19927;-70
2023/04/13 10:02:26;;;;;;;;;;;;;;;11.13;48.07;95780.81;5055602;28;19917;-71
2023/04/13 10:04:52;;;;;;;;;;;;;;;11.70;47.10;95790.09;5047934;28;19921;-72
2023/04/13 10:07:18;;;;;;;;;;;;;;;11.38;47.34;95789.00;5014986;28;20020;-71
2023/04/13 10:09:43;;;;;;;;;;;;;;;12.08;46.04;95795.88;5020977;28;20020;-70
2023/04/13 10:12:12;;;;;;;;;;;;;;;11.97;46.42;95793.94;5014379;28;19980;-73
2023/04/13 10:14:39;;;;;;;;;;;;;;;12.18;45.80;95781.34;5032889;28;19920;-69
2023/04/13 10:17:11;;;;;;;;;;;;;;;12.49;46.23;95787.06;5035323;28;19917;-69
2023/04/13 10:19:41;;;;;;;;;;;;;;;13.09;45.10;95782.31;5040694;28;20346;-73
2023/04/13 10:22:07;;;;;;;;;;;;;;;14.35;42.00;95770.81;5035710;28;19917;-72
2023/04/13 10:24:33;;;;;;;;;;;;;;;14.56;41.51;95763.41;5040933;28;19947;-71
2023/04/13 10:27:09;;;;;;;;;;;;;;;14.13;41.77;95762.81;5043852;28;19932;-69
2023/04/13 10:29:34;;;;;;;;;;;;;;;13.57;42.82;95768.53;5053168;28;19991;-70
2023/04/13 10:32:01;;;;;;;;;;;;;;;13.13;42.96;95780.34;5057079;28;20043;-71
2023/04/13 10:34:27;;;;;;;;;;;;;;;13.64;42.87;95764.94;5040084;28;19924;-69
2023/04/13 10:37:14;;;;;;;;;;;;;;;12.60;44.16;95760.31;5049703;28;19946;-71
2023/04/13 10:39:39;;;;;;;;;;;;;;;12.31;45.72;95765.19;5047641;28;19931;-69
2023/04/13 10:42:05;;;;;;;;;;;;;;;12.43;45.39;95772.97;5042420;28;20382;-65
2023/04/13 10:44:41;;;;;;;;;;;;;;;12.11;46.19;95764.91;5046729;28;19916;-71
2023/04/13 10:47:07;;;;;;;;;;;;;;;12.88;45.27;95772.28;5042133;28;19966;-70
2023/04/13 10:49:32;;;;;;;;;;;;;;;12.41;45.39;95769.84;5046564;28;20012;-72
2023/04/13 10:51:57;;;;;;;;;;;;;;;11.92;45.84;95763.41;5046537;28;20070;-71
2023/04/13 10:54:26;;;;;;;;;;;;;;;11.27;46.26;95764.34;5041770;28;20138;-72
2023/04/13 10:56:58;;;;;;;;;;;;;;;11.49;48.07;95767.03;5028972;28;19920;-71
2023/04/13 10:59:35;;;;;;;;;;;;;;;10.98;51.76;95760.81;5041253;28;20744;-70
2023/04/13 11:02:05;;;;;;;;;;;;;;;10.90;51.11;95768.28;5046595;28;19925;-71
2023/04/13 11:04:30;;;;;;;;;;;;;;;10.28;54.27;95769.34;5046200;28;19921;-72
2023/04/13 11:06:56;;;;;;;;;;;;;;;10.52;54.53;95767.84;5038935;28;20312;-69
2023/04/13 11:09:21;;;;;;;;;;;;;;;9.71;55.86;95771.88;5041421;28;20028;-71
2023/04/13 11:11:55;;;;;;;;;;;;;;;9.76;56.56;95766.81;5045202;28;19972;-71
2023/04/13 11:14:21;;;;;;;;;;;;;;;9.91;57.53;95766.88;5041937;28;20086;-70
2023/04/13 11:16:48;;;;;;;;;;;;;;;9.98;57.98;95774.34;5061788;28;20429;-71
2023/04/13 11:19:13;;;;;;;;;;;;;;;10.05;57.45;95766.94;5041924;28;19917;-71
2023/04/13 11:21:39;;;;;;;;;;;;;;;10.23;58.06;95753.31;5046926;28;20377;-71
2023/04/13 11:24:04;;;;;;;;;;;;;;;10.18;56.64;95759.16;5042699;28;19920;-66
2023/04/13 11:26:33;;;;;;;;;;;;;;;9.99;56.50;95763.00;5047072;28;19917;-71
2023/04/13 11:28:58;;;;;;;;;;;;;;;9.62;56.96;95760.50;5047250;28;19975;-70
2023/04/13 11:31:53;;;;;;;;;;;;;;;9.48;57.15;95751.06;5041410;28;19956;-71
2023/04/13 11:34:24;;;;;;;;;;;;;;;9.59;57.13;95739.41;5039751;28;20026;-71
2023/04/13 11:36:59;;;;;;;;;;;;;;;9.62;56.79;95744.09;5047051;28;20312;-71
2023/04/13 11:39:24;;;;;;;;;;;;;;;9.46;53.39;95738.94;5042316;28;19976;-71
2023/04/13 11:41:50;;;;;;;;;;;;;;;9.74;53.90;95739.06;5047208;28;19999;-71
2023/04/13 11:44:16;;;;;;;;;;;;;;;10.06;53.55;95732.91;5041576;28;19921;-69
2023/04/13 11:46:41;;;;;;;;;;;;;;;10.60;51.63;95724.06;5044878;28;20243;-71
2023/04/13 11:49:07;;;;;;;;;;;;;;;10.90;50.84;95729.91;5037819;28;19962;-71
2023/04/13 11:51:32;;;;;;;;;;;;;;;11.21;49.14;95724.78;5051867;28;19968;-72
2023/04/13 11:53:59;;;;;;;;;;;;;;;11.21;49.21;95719.31;5063555;28;19920;-70
2023/04/13 11:56:25;;;;;;;;;;;;;;;11.53;47.75;95712.19;5058044;28;19924;-71
2023/04/13 11:58:52;;;;;;;;;;;;;;;11.75;47.34;95704.66;5043948;28;20413;-71
2023/04/13 12:01:20;;;;;;;;;;;;;;;12.05;47.18;95709.66;5058298;28;19960;-72
2023/04/13 12:03:45;;;;;;;;;;;;;;;11.97;47.21;95710.84;5046646;28;19917;-70
2023/04/13 12:06:11;;;;;;;;;;;;;;;12.03;46.58;95712.03;5041776;28;19920;-72
2023/04/13 12:08:36;;;;;;;;;;;;;;;11.26;49.13;95704.44;5044312;28;20231;-72
2023/04/13 12:11:04;;;;;;;;;;;;;;;11.19;47.61;95704.44;5043709;28;19961;-66
2023/04/13 12:13:43;;;;;;;;;;;;;;;11.31;46.91;95709.50;5043796;28;19974;-72
2023/04/13 12:16:09;;;;;;;;;;;;;;;10.82;48.29;95702.91;5037515;28;20007;-71
2023/04/13 12:18:44;;;;;;;;;;;;;;;10.92;47.49;95695.88;5043237;28;20040;-71
2023/04/13 12:21:16;;;;;;;;;;;;;;;11.13;47.78;95693.09;5038159;28;19960;-72
2023/04/13 12:23:54;;;;;;;;;;;;;;;11.09;47.49;95689.56;5039960;28;20015;-69
2023/04/13 12:26:20;;;;;;;;;;;;;;;10.94;48.34;95690.78;5046957;28;19923;-71
2023/04/13 12:28:48;;;;;;;;;;;;;;;10.64;50.29;95689.22;5043134;28;20359;-70
2023/04/13 12:31:14;;;;;;;;;;;;;;;10.48;50.62;95693.16;5038779;28;19917;-70
2023/04/13 12:33:40;;;;;;;;;;;;;;;10.57;50.51;95692.78;5043501;28;19959;-71
2023/04/13 12:36:05;;;;;;;;;;;;;;;10.47;50.42;95699.78;5037713;28;19921;-69
2023/04/13 12:38:31;;;;;;;;;;;;;;;10.33;51.20;95695.09;5024858;28;20047;-69
2023/04/13 12:40:57;;;;;;;;;;;;;;;10.03;50.30;95708.28;5024833;28;19936;-72
2023/04/13 12:43:23;;;;;;;;;;;;;;;10.06;50.34;95710.25;5037609;28;19925;-72
2023/04/13 12:45:48;;;;;;;;;;;;;;;10.23;50.44;95704.03;5042479;28;20278;-72
2023/04/13 12:48:13;;;;;;;;;;;;;;;10.60;47.01;95710.38;5039789;28;20015;-71